sensor_id;sensor_type;location;lat;lon;timestamp;P1;durP1;ratioP1;P2;durP2;ratioP2
62338;SDS011;48368;53.406;6.214;2023-04-12T00:01:35;6.55;;;1.73;;
62338;SDS011;48368;53.406;6.214;2023-04-12T00:04:00;10.38;;;1.83;;
62338;SDS011;48368;53.406;6.214;2023-04-12T00:06:29;11.60;;;2.05;;
62338;SDS011;48368;53.406;6.214;2023-04-12T00:08:59;7.38;;;1.60;;
62338;SDS011;48368;53.406;6.214;2023-04-12T00:11:25;8.70;;;1.58;;
62338;SDS011;48368;53.406;6.214;2023-04-12T00:13:54;6.60;;;1.95;;
62338;SDS011;48368;53.406;6.214;2023-04-12T00:16:19;6.63;;;2.65;;
62338;SDS011;48368;53.406;6.214;2023-04-12T00:18:45;7.32;;;1.77;;
62338;SDS011;48368;53.406;6.214;2023-04-12T00:21:11;5.82;;;1.77;;
62338;SDS011;48368;53.406;6.214;2023-04-12T00:23:37;8.27;;;2.28;;
62338;SDS011;48368;53.406;6.214;2023-04-12T00:26:03;6.15;;;1.80;;
62338;SDS011;48368;53.406;6.214;2023-04-12T00:28:29;7.90;;;1.88;;
62338;SDS011;48368;53.406;6.214;2023-04-12T00:30:55;7.30;;;2.22;;
62338;SDS011;48368;53.406;6.214;2023-04-12T00:33:21;9.75;;;2.05;;
62338;SDS011;48368;53.406;6.214;2023-04-12T00:35:46;5.70;;;1.58;;
62338;SDS011;48368;53.406;6.214;2023-04-12T00:38:12;8.75;;;2.63;;
62338;SDS011;48368;53.406;6.214;2023-04-12T00:40:42;10.13;;;2.05;;
62338;SDS011;48368;53.406;6.214;2023-04-12T00:43:08;7.25;;;2.50;;
62338;SDS011;48368;53.406;6.214;2023-04-12T00:45:39;5.07;;;2.00;;
62338;SDS011;48368;53.406;6.214;2023-04-12T00:48:05;10.73;;;2.60;;
62338;SDS011;48368;53.406;6.214;2023-04-12T00:50:33;7.68;;;2.22;;
62338;SDS011;48368;53.406;6.214;2023-04-12T00:53:01;9.57;;;2.60;;
62338;SDS011;48368;53.406;6.214;2023-04-12T00:55:28;9.00;;;2.35;;
62338;SDS011;48368;53.406;6.214;2023-04-12T00:57:54;7.75;;;2.60;;
62338;SDS011;48368;53.406;6.214;2023-04-12T01:00:20;6.57;;;2.38;;
62338;SDS011;48368;53.406;6.214;2023-04-12T01:02:46;7.13;;;2.22;;
62338;SDS011;48368;53.406;6.214;2023-04-12T01:05:19;6.65;;;2.53;;
62338;SDS011;48368;53.406;6.214;2023-04-12T01:07:54;9.18;;;2.80;;
62338;SDS011;48368;53.406;6.214;2023-04-12T01:11:07;8.48;;;2.83;;
62338;SDS011;48368;53.406;6.214;2023-04-12T01:16:41;10.00;;;2.70;;
62338;SDS011;48368;53.406;6.214;2023-04-12T01:19:17;7.93;;;2.70;;
62338;SDS011;48368;53.406;6.214;2023-04-12T01:27:48;11.07;;;3.33;;
62338;SDS011;48368;53.406;6.214;2023-04-12T01:30:18;8.60;;;3.00;;
62338;SDS011;48368;53.406;6.214;2023-04-12T01:32:45;9.18;;;2.70;;
62338;SDS011;48368;53.406;6.214;2023-04-12T01:35:16;12.18;;;2.67;;
62338;SDS011;48368;53.406;6.214;2023-04-12T01:37:44;11.55;;;2.85;;
62338;SDS011;48368;53.406;6.214;2023-04-12T01:40:11;8.93;;;3.20;;
62338;SDS011;48368;53.406;6.214;2023-04-12T01:42:37;9.73;;;2.80;;
62338;SDS011;48368;53.406;6.214;2023-04-12T01:45:04;8.45;;;3.40;;
62338;SDS011;48368;53.406;6.214;2023-04-12T01:47:31;8.25;;;3.05;;
62338;SDS011;48368;53.406;6.214;2023-04-12T01:50:20;12.88;;;3.30;;
62338;SDS011;48368;53.406;6.214;2023-04-12T01:52:59;10.15;;;3.10;;
62338;SDS011;48368;53.406;6.214;2023-04-12T01:55:29;10.43;;;3.33;;
62338;SDS011;48368;53.406;6.214;2023-04-12T01:57:57;7.63;;;2.85;;
62338;SDS011;48368;53.406;6.214;2023-04-12T02:00:25;11.52;;;3.72;;
62338;SDS011;48368;53.406;6.214;2023-04-12T02:02:52;9.23;;;3.25;;
62338;SDS011;48368;53.406;6.214;2023-04-12T02:05:18;6.95;;;3.15;;
62338;SDS011;48368;53.406;6.214;2023-04-12T02:07:45;8.07;;;2.88;;
62338;SDS011;48368;53.406;6.214;2023-04-12T02:10:13;10.02;;;2.92;;
62338;SDS011;48368;53.406;6.214;2023-04-12T02:12:39;13.38;;;3.67;;
62338;SDS011;48368;53.406;6.214;2023-04-12T02:15:05;7.57;;;3.58;;
62338;SDS011;48368;53.406;6.214;2023-04-12T02:17:32;9.38;;;3.08;;
62338;SDS011;48368;53.406;6.214;2023-04-12T02:20:00;8.63;;;3.08;;
62338;SDS011;48368;53.406;6.214;2023-04-12T02:22:26;12.23;;;3.20;;
62338;SDS011;48368;53.406;6.214;2023-04-12T02:24:51;12.13;;;3.10;;
62338;SDS011;48368;53.406;6.214;2023-04-12T02:27:17;12.45;;;3.20;;
62338;SDS011;48368;53.406;6.214;2023-04-12T02:29:43;10.15;;;2.72;;
62338;SDS011;48368;53.406;6.214;2023-04-12T02:32:09;9.63;;;2.78;;
62338;SDS011;48368;53.406;6.214;2023-04-12T02:34:35;8.32;;;3.80;;
62338;SDS011;48368;53.406;6.214;2023-04-12T02:37:02;9.55;;;2.88;;
62338;SDS011;48368;53.406;6.214;2023-04-12T02:39:28;8.07;;;3.30;;
62338;SDS011;48368;53.406;6.214;2023-04-12T02:41:56;10.13;;;2.53;;
62338;SDS011;48368;53.406;6.214;2023-04-12T02:44:22;6.10;;;2.38;;
62338;SDS011;48368;53.406;6.214;2023-04-12T02:46:47;9.18;;;2.90;;
62338;SDS011;48368;53.406;6.214;2023-04-12T02:49:13;7.38;;;2.88;;
62338;SDS011;48368;53.406;6.214;2023-04-12T02:51:40;7.32;;;2.50;;
62338;SDS011;48368;53.406;6.214;2023-04-12T02:54:05;5.63;;;2.38;;
62338;SDS011;48368;53.406;6.214;2023-04-12T02:56:33;5.38;;;2.47;;
62338;SDS011;48368;53.406;6.214;2023-04-12T02:59:00;9.60;;;3.10;;
62338;SDS011;48368;53.406;6.214;2023-04-12T03:01:25;6.18;;;2.42;;
62338;SDS011;48368;53.406;6.214;2023-04-12T03:03:51;7.68;;;2.95;;
62338;SDS011;48368;53.406;6.214;2023-04-12T03:06:16;7.35;;;2.53;;
62338;SDS011;48368;53.406;6.214;2023-04-12T03:08:42;4.53;;;1.88;;
62338;SDS011;48368;53.406;6.214;2023-04-12T03:11:08;4.85;;;2.28;;
62338;SDS011;48368;53.406;6.214;2023-04-12T03:13:34;9.25;;;2.72;;
62338;SDS011;48368;53.406;6.214;2023-04-12T03:16:02;7.07;;;2.45;;
62338;SDS011;48368;53.406;6.214;2023-04-12T03:18:48;9.63;;;2.58;;
62338;SDS011;48368;53.406;6.214;2023-04-12T03:21:14;6.20;;;2.20;;
62338;SDS011;48368;53.406;6.214;2023-04-12T03:23:40;8.20;;;2.50;;
62338;SDS011;48368;53.406;6.214;2023-04-12T03:26:06;8.27;;;2.47;;
62338;SDS011;48368;53.406;6.214;2023-04-12T03:28:32;5.35;;;1.90;;
62338;SDS011;48368;53.406;6.214;2023-04-12T03:30:58;6.28;;;2.08;;
62338;SDS011;48368;53.406;6.214;2023-04-12T03:33:24;10.27;;;2.20;;
62338;SDS011;48368;53.406;6.214;2023-04-12T03:35:50;6.43;;;2.22;;
62338;SDS011;48368;53.406;6.214;2023-04-12T03:38:16;8.60;;;3.28;;
62338;SDS011;48368;53.406;6.214;2023-04-12T03:40:42;8.18;;;2.25;;
62338;SDS011;48368;53.406;6.214;2023-04-12T03:43:07;6.38;;;2.00;;
62338;SDS011;48368;53.406;6.214;2023-04-12T03:45:33;7.60;;;2.35;;
62338;SDS011;48368;53.406;6.214;2023-04-12T03:47:59;11.57;;;2.20;;
62338;SDS011;48368;53.406;6.214;2023-04-12T03:50:25;9.80;;;3.17;;
62338;SDS011;48368;53.406;6.214;2023-04-12T03:52:53;5.03;;;2.03;;
62338;SDS011;48368;53.406;6.214;2023-04-12T03:55:19;7.40;;;2.30;;
62338;SDS011;48368;53.406;6.214;2023-04-12T03:57:45;8.00;;;2.58;;
62338;SDS011;48368;53.406;6.214;2023-04-12T04:00:11;5.57;;;2.10;;
62338;SDS011;48368;53.406;6.214;2023-04-12T04:02:37;9.07;;;2.53;;
62338;SDS011;48368;53.406;6.214;2023-04-12T04:05:03;7.57;;;2.67;;
62338;SDS011;48368;53.406;6.214;2023-04-12T04:07:29;7.72;;;2.60;;
62338;SDS011;48368;53.406;6.214;2023-04-12T04:09:56;8.15;;;2.20;;
62338;SDS011;48368;53.406;6.214;2023-04-12T04:12:21;7.25;;;2.72;;
62338;SDS011;48368;53.406;6.214;2023-04-12T04:14:47;11.50;;;2.83;;
62338;SDS011;48368;53.406;6.214;2023-04-12T04:17:13;5.78;;;2.20;;
62338;SDS011;48368;53.406;6.214;2023-04-12T04:19:38;9.43;;;2.38;;
62338;SDS011;48368;53.406;6.214;2023-04-12T04:22:04;5.45;;;1.80;;
62338;SDS011;48368;53.406;6.214;2023-04-12T04:24:31;8.38;;;2.80;;
62338;SDS011;48368;53.406;6.214;2023-04-12T04:26:58;7.18;;;1.92;;
62338;SDS011;48368;53.406;6.214;2023-04-12T04:29:23;10.63;;;2.50;;
62338;SDS011;48368;53.406;6.214;2023-04-12T04:31:49;9.48;;;2.22;;
62338;SDS011;48368;53.406;6.214;2023-04-12T04:34:15;6.85;;;2.72;;
62338;SDS011;48368;53.406;6.214;2023-04-12T04:36:42;7.22;;;2.67;;
62338;SDS011;48368;53.406;6.214;2023-04-12T04:39:08;11.50;;;3.72;;
62338;SDS011;48368;53.406;6.214;2023-04-12T04:41:34;7.00;;;2.90;;
62338;SDS011;48368;53.406;6.214;2023-04-12T04:44:06;4.75;;;1.92;;
62338;SDS011;48368;53.406;6.214;2023-04-12T04:46:38;7.78;;;2.65;;
62338;SDS011;48368;53.406;6.214;2023-04-12T04:49:04;11.27;;;2.80;;
62338;SDS011;48368;53.406;6.214;2023-04-12T04:51:37;6.07;;;2.85;;
62338;SDS011;48368;53.406;6.214;2023-04-12T04:54:02;8.10;;;2.83;;
62338;SDS011;48368;53.406;6.214;2023-04-12T04:56:28;8.68;;;4.15;;
62338;SDS011;48368;53.406;6.214;2023-04-12T04:58:54;6.10;;;2.97;;
62338;SDS011;48368;53.406;6.214;2023-04-12T05:01:19;14.80;;;6.43;;
62338;SDS011;48368;53.406;6.214;2023-04-12T05:03:49;8.07;;;3.45;;
62338;SDS011;48368;53.406;6.214;2023-04-12T05:06:15;14.13;;;5.82;;
62338;SDS011;48368;53.406;6.214;2023-04-12T05:08:41;17.55;;;7.10;;
62338;SDS011;48368;53.406;6.214;2023-04-12T05:11:07;9.85;;;3.90;;
62338;SDS011;48368;53.406;6.214;2023-04-12T05:13:32;9.85;;;4.72;;
62338;SDS011;48368;53.406;6.214;2023-04-12T05:15:58;14.82;;;5.82;;
62338;SDS011;48368;53.406;6.214;2023-04-12T05:18:23;11.02;;;5.65;;
62338;SDS011;48368;53.406;6.214;2023-04-12T05:20:49;15.02;;;6.55;;
62338;SDS011;48368;53.406;6.214;2023-04-12T05:23:15;13.35;;;6.00;;
62338;SDS011;48368;53.406;6.214;2023-04-12T05:25:45;11.57;;;6.68;;
62338;SDS011;48368;53.406;6.214;2023-04-12T05:28:12;12.85;;;6.95;;
62338;SDS011;48368;53.406;6.214;2023-04-12T05:30:39;11.07;;;6.70;;
62338;SDS011;48368;53.406;6.214;2023-04-12T05:33:05;15.20;;;6.10;;
62338;SDS011;48368;53.406;6.214;2023-04-12T05:35:30;15.68;;;7.07;;
62338;SDS011;48368;53.406;6.214;2023-04-12T05:37:56;12.88;;;5.88;;
62338;SDS011;48368;53.406;6.214;2023-04-12T05:40:22;17.13;;;6.93;;
62338;SDS011;48368;53.406;6.214;2023-04-12T05:42:47;16.90;;;7.18;;
62338;SDS011;48368;53.406;6.214;2023-04-12T05:45:13;13.85;;;6.00;;
62338;SDS011;48368;53.406;6.214;2023-04-12T05:47:38;15.23;;;5.35;;
62338;SDS011;48368;53.406;6.214;2023-04-12T05:50:04;12.18;;;4.80;;
62338;SDS011;48368;53.406;6.214;2023-04-12T05:52:36;10.98;;;5.68;;
62338;SDS011;48368;53.406;6.214;2023-04-12T05:55:01;13.27;;;5.10;;
62338;SDS011;48368;53.406;6.214;2023-04-12T05:57:29;12.18;;;4.30;;
62338;SDS011;48368;53.406;6.214;2023-04-12T05:59:54;11.85;;;5.78;;
62338;SDS011;48368;53.406;6.214;2023-04-12T06:02:20;20.65;;;7.05;;
62338;SDS011;48368;53.406;6.214;2023-04-12T06:04:46;15.38;;;6.28;;
62338;SDS011;48368;53.406;6.214;2023-04-12T06:07:12;15.38;;;6.68;;
62338;SDS011;48368;53.406;6.214;2023-04-12T06:09:41;25.60;;;9.50;;
62338;SDS011;48368;53.406;6.214;2023-04-12T06:12:07;20.13;;;8.57;;
62338;SDS011;48368;53.406;6.214;2023-04-12T06:14:32;18.90;;;7.53;;
62338;SDS011;48368;53.406;6.214;2023-04-12T06:16:58;21.05;;;9.73;;
62338;SDS011;48368;53.406;6.214;2023-04-12T06:19:24;12.60;;;7.47;;
62338;SDS011;48368;53.406;6.214;2023-04-12T06:21:50;17.25;;;8.05;;
62338;SDS011;48368;53.406;6.214;2023-04-12T06:24:16;17.67;;;7.63;;
62338;SDS011;48368;53.406;6.214;2023-04-12T06:26:42;35.90;;;11.68;;
62338;SDS011;48368;53.406;6.214;2023-04-12T06:29:10;40.45;;;13.95;;
62338;SDS011;48368;53.406;6.214;2023-04-12T06:31:36;16.45;;;7.45;;
62338;SDS011;48368;53.406;6.214;2023-04-12T06:34:02;15.88;;;5.75;;
62338;SDS011;48368;53.406;6.214;2023-04-12T06:36:28;11.38;;;5.22;;
62338;SDS011;48368;53.406;6.214;2023-04-12T06:38:54;16.75;;;7.43;;
62338;SDS011;48368;53.406;6.214;2023-04-12T06:41:19;15.20;;;6.60;;
62338;SDS011;48368;53.406;6.214;2023-04-12T06:43:46;13.10;;;5.80;;
62338;SDS011;48368;53.406;6.214;2023-04-12T06:46:11;13.20;;;6.55;;
62338;SDS011;48368;53.406;6.214;2023-04-12T06:48:42;12.63;;;6.35;;
62338;SDS011;48368;53.406;6.214;2023-04-12T06:51:09;16.05;;;7.05;;
62338;SDS011;48368;53.406;6.214;2023-04-12T06:53:38;14.07;;;7.78;;
62338;SDS011;48368;53.406;6.214;2023-04-12T06:56:04;12.13;;;6.68;;
62338;SDS011;48368;53.406;6.214;2023-04-12T06:58:30;12.88;;;7.30;;
62338;SDS011;48368;53.406;6.214;2023-04-12T07:01:05;13.68;;;7.35;;
62338;SDS011;48368;53.406;6.214;2023-04-12T07:03:31;11.43;;;6.20;;
62338;SDS011;48368;53.406;6.214;2023-04-12T07:05:58;12.57;;;7.05;;
62338;SDS011;48368;53.406;6.214;2023-04-12T07:08:26;13.27;;;6.30;;
62338;SDS011;48368;53.406;6.214;2023-04-12T07:10:53;14.25;;;6.63;;
62338;SDS011;48368;53.406;6.214;2023-04-12T07:13:19;15.32;;;6.57;;
62338;SDS011;48368;53.406;6.214;2023-04-12T07:15:44;11.77;;;6.03;;
62338;SDS011;48368;53.406;6.214;2023-04-12T07:18:11;10.48;;;6.13;;
62338;SDS011;48368;53.406;6.214;2023-04-12T07:20:36;11.07;;;5.88;;
62338;SDS011;48368;53.406;6.214;2023-04-12T07:23:02;11.13;;;6.78;;
62338;SDS011;48368;53.406;6.214;2023-04-12T07:25:27;12.85;;;6.28;;
62338;SDS011;48368;53.406;6.214;2023-04-12T07:27:53;12.65;;;6.85;;
62338;SDS011;48368;53.406;6.214;2023-04-12T07:30:19;10.40;;;6.50;;
62338;SDS011;48368;53.406;6.214;2023-04-12T07:32:44;11.98;;;6.50;;
62338;SDS011;48368;53.406;6.214;2023-04-12T07:35:10;13.50;;;7.53;;
62338;SDS011;48368;53.406;6.214;2023-04-12T07:37:36;13.98;;;7.95;;
62338;SDS011;48368;53.406;6.214;2023-04-12T07:40:02;14.13;;;8.57;;
62338;SDS011;48368;53.406;6.214;2023-04-12T07:42:27;16.80;;;8.90;;
62338;SDS011;48368;53.406;6.214;2023-04-12T07:44:53;13.48;;;7.97;;
62338;SDS011;48368;53.406;6.214;2023-04-12T07:47:19;12.15;;;7.75;;
62338;SDS011;48368;53.406;6.214;2023-04-12T07:49:44;17.02;;;7.93;;
62338;SDS011;48368;53.406;6.214;2023-04-12T07:52:11;14.68;;;7.63;;
62338;SDS011;48368;53.406;6.214;2023-04-12T07:54:36;14.77;;;8.38;;
62338;SDS011;48368;53.406;6.214;2023-04-12T07:57:02;13.77;;;7.22;;
62338;SDS011;48368;53.406;6.214;2023-04-12T07:59:28;12.38;;;6.93;;
62338;SDS011;48368;53.406;6.214;2023-04-12T08:01:55;12.90;;;7.95;;
62338;SDS011;48368;53.406;6.214;2023-04-12T08:04:21;11.55;;;8.57;;
62338;SDS011;48368;53.406;6.214;2023-04-12T08:06:47;12.27;;;7.22;;
62338;SDS011;48368;53.406;6.214;2023-04-12T08:09:12;13.43;;;8.18;;
62338;SDS011;48368;53.406;6.214;2023-04-12T08:11:38;29.25;;;11.98;;
62338;SDS011;48368;53.406;6.214;2023-04-12T08:14:04;12.65;;;7.63;;
62338;SDS011;48368;53.406;6.214;2023-04-12T08:16:30;14.45;;;9.10;;
62338;SDS011;48368;53.406;6.214;2023-04-12T08:18:56;12.82;;;8.20;;
62338;SDS011;48368;53.406;6.214;2023-04-12T08:21:22;16.00;;;8.45;;
62338;SDS011;48368;53.406;6.214;2023-04-12T08:23:47;16.70;;;9.80;;
62338;SDS011;48368;53.406;6.214;2023-04-12T08:26:15;13.02;;;8.45;;
62338;SDS011;48368;53.406;6.214;2023-04-12T08:28:40;15.77;;;8.13;;
62338;SDS011;48368;53.406;6.214;2023-04-12T08:31:06;14.25;;;7.78;;
62338;SDS011;48368;53.406;6.214;2023-04-12T08:33:32;13.68;;;8.02;;
62338;SDS011;48368;53.406;6.214;2023-04-12T08:35:58;14.30;;;9.02;;
62338;SDS011;48368;53.406;6.214;2023-04-12T08:38:24;16.98;;;10.05;;
62338;SDS011;48368;53.406;6.214;2023-04-12T08:40:50;10.60;;;7.10;;
62338;SDS011;48368;53.406;6.214;2023-04-12T08:43:16;15.23;;;9.35;;
62338;SDS011;48368;53.406;6.214;2023-04-12T08:45:43;16.05;;;10.15;;
62338;SDS011;48368;53.406;6.214;2023-04-12T08:48:09;15.45;;;8.98;;
62338;SDS011;48368;53.406;6.214;2023-04-12T08:50:35;14.80;;;9.10;;
62338;SDS011;48368;53.406;6.214;2023-04-12T08:53:01;16.35;;;9.98;;
62338;SDS011;48368;53.406;6.214;2023-04-12T08:55:27;15.10;;;9.45;;
62338;SDS011;48368;53.406;6.214;2023-04-12T08:57:53;16.35;;;10.02;;
62338;SDS011;48368;53.406;6.214;2023-04-12T09:00:20;16.05;;;9.38;;
62338;SDS011;48368;53.406;6.214;2023-04-12T09:02:46;13.48;;;9.38;;
62338;SDS011;48368;53.406;6.214;2023-04-12T09:05:13;14.25;;;9.90;;
62338;SDS011;48368;53.406;6.214;2023-04-12T09:07:39;14.35;;;9.32;;
62338;SDS011;48368;53.406;6.214;2023-04-12T09:10:05;15.45;;;8.70;;
62338;SDS011;48368;53.406;6.214;2023-04-12T09:12:31;16.40;;;9.52;;
62338;SDS011;48368;53.406;6.214;2023-04-12T09:15:04;16.92;;;8.80;;
62338;SDS011;48368;53.406;6.214;2023-04-12T09:17:34;15.57;;;9.05;;
62338;SDS011;48368;53.406;6.214;2023-04-12T09:20:01;14.23;;;8.57;;
62338;SDS011;48368;53.406;6.214;2023-04-12T09:22:34;16.60;;;9.18;;
62338;SDS011;48368;53.406;6.214;2023-04-12T09:25:01;16.40;;;9.07;;
62338;SDS011;48368;53.406;6.214;2023-04-12T09:27:27;14.52;;;8.65;;
62338;SDS011;48368;53.406;6.214;2023-04-12T09:30:06;16.05;;;8.32;;
62338;SDS011;48368;53.406;6.214;2023-04-12T09:32:33;12.20;;;8.30;;
62338;SDS011;48368;53.406;6.214;2023-04-12T09:34:58;12.90;;;8.80;;
62338;SDS011;48368;53.406;6.214;2023-04-12T09:37:25;14.90;;;7.93;;
62338;SDS011;48368;53.406;6.214;2023-04-12T09:39:57;11.02;;;6.78;;
62338;SDS011;48368;53.406;6.214;2023-04-12T09:42:25;11.18;;;6.93;;
62338;SDS011;48368;53.406;6.214;2023-04-12T09:44:51;13.43;;;6.30;;
62338;SDS011;48368;53.406;6.214;2023-04-12T09:47:18;14.57;;;6.07;;
62338;SDS011;48368;53.406;6.214;2023-04-12T09:49:44;8.30;;;5.00;;
62338;SDS011;48368;53.406;6.214;2023-04-12T09:52:11;10.93;;;5.35;;
62338;SDS011;48368;53.406;6.214;2023-04-12T09:54:46;10.23;;;5.10;;
62338;SDS011;48368;53.406;6.214;2023-04-12T09:57:16;9.15;;;3.80;;
62338;SDS011;48368;53.406;6.214;2023-04-12T09:59:46;9.90;;;3.80;;
62338;SDS011;48368;53.406;6.214;2023-04-12T10:02:18;9.63;;;3.88;;
62338;SDS011;48368;53.406;6.214;2023-04-12T10:04:49;14.95;;;4.07;;
62338;SDS011;48368;53.406;6.214;2023-04-12T10:07:14;9.05;;;4.07;;
62338;SDS011;48368;53.406;6.214;2023-04-12T10:09:41;14.15;;;3.90;;
62338;SDS011;48368;53.406;6.214;2023-04-12T10:12:08;14.52;;;5.00;;
62338;SDS011;48368;53.406;6.214;2023-04-12T10:14:34;11.93;;;4.35;;
62338;SDS011;48368;53.406;6.214;2023-04-12T10:17:00;10.57;;;3.88;;
62338;SDS011;48368;53.406;6.214;2023-04-12T10:19:28;14.63;;;3.92;;
62338;SDS011;48368;53.406;6.214;2023-04-12T10:21:55;13.63;;;4.00;;
62338;SDS011;48368;53.406;6.214;2023-04-12T10:24:22;15.13;;;3.78;;
62338;SDS011;48368;53.406;6.214;2023-04-12T10:26:52;13.35;;;3.47;;
62338;SDS011;48368;53.406;6.214;2023-04-12T10:29:29;12.05;;;3.85;;
62338;SDS011;48368;53.406;6.214;2023-04-12T10:31:57;11.05;;;3.83;;
62338;SDS011;48368;53.406;6.214;2023-04-12T10:34:42;13.90;;;4.10;;
62338;SDS011;48368;53.406;6.214;2023-04-12T10:37:08;10.82;;;3.42;;
62338;SDS011;48368;53.406;6.214;2023-04-12T10:39:43;12.73;;;3.40;;
62338;SDS011;48368;53.406;6.214;2023-04-12T10:42:24;20.35;;;3.17;;
62338;SDS011;48368;53.406;6.214;2023-04-12T10:44:52;22.23;;;3.08;;
62338;SDS011;48368;53.406;6.214;2023-04-12T10:50:31;17.53;;;3.20;;
62338;SDS011;48368;53.406;6.214;2023-04-12T10:55:37;13.23;;;2.33;;
62338;SDS011;48368;53.406;6.214;2023-04-12T10:58:03;15.02;;;2.13;;
62338;SDS011;48368;53.406;6.214;2023-04-12T11:03:19;14.57;;;3.67;;
62338;SDS011;48368;53.406;6.214;2023-04-12T11:06:01;13.02;;;2.95;;
62338;SDS011;48368;53.406;6.214;2023-04-12T11:10:58;11.55;;;2.13;;
62338;SDS011;48368;53.406;6.214;2023-04-12T11:13:27;16.27;;;2.83;;
62338;SDS011;48368;53.406;6.214;2023-04-12T11:15:54;21.95;;;2.58;;
62338;SDS011;48368;53.406;6.214;2023-04-12T11:18:21;16.17;;;2.60;;
62338;SDS011;48368;53.406;6.214;2023-04-12T11:20:49;15.07;;;2.50;;
62338;SDS011;48368;53.406;6.214;2023-04-12T11:23:16;14.43;;;3.67;;
62338;SDS011;48368;53.406;6.214;2023-04-12T11:25:42;14.48;;;2.78;;
62338;SDS011;48368;53.406;6.214;2023-04-12T11:28:15;17.52;;;2.97;;
62338;SDS011;48368;53.406;6.214;2023-04-12T11:30:51;17.67;;;2.38;;
62338;SDS011;48368;53.406;6.214;2023-04-12T11:33:37;16.13;;;2.35;;
62338;SDS011;48368;53.406;6.214;2023-04-12T11:36:07;17.25;;;3.20;;
62338;SDS011;48368;53.406;6.214;2023-04-12T11:38:36;17.73;;;3.13;;
62338;SDS011;48368;53.406;6.214;2023-04-12T11:41:02;12.48;;;2.50;;
62338;SDS011;48368;53.406;6.214;2023-04-12T11:43:31;12.90;;;2.55;;
62338;SDS011;48368;53.406;6.214;2023-04-12T11:45:58;11.27;;;2.28;;
62338;SDS011;48368;53.406;6.214;2023-04-12T11:48:25;14.27;;;2.42;;
62338;SDS011;48368;53.406;6.214;2023-04-12T11:50:54;16.33;;;2.42;;
62338;SDS011;48368;53.406;6.214;2023-04-12T11:53:29;16.95;;;2.38;;
62338;SDS011;48368;53.406;6.214;2023-04-12T11:55:58;14.00;;;2.60;;
62338;SDS011;48368;53.406;6.214;2023-04-12T11:58:26;11.60;;;2.35;;
62338;SDS011;48368;53.406;6.214;2023-04-12T12:00:53;16.65;;;2.10;;
62338;SDS011;48368;53.406;6.214;2023-04-12T12:03:21;12.98;;;2.90;;
62338;SDS011;48368;53.406;6.214;2023-04-12T12:05:47;13.75;;;1.77;;
62338;SDS011;48368;53.406;6.214;2023-04-12T12:08:13;13.25;;;1.92;;
62338;SDS011;48368;53.406;6.214;2023-04-12T12:10:39;14.15;;;2.45;;
62338;SDS011;48368;53.406;6.214;2023-04-12T12:13:12;15.27;;;1.70;;
62338;SDS011;48368;53.406;6.214;2023-04-12T12:15:38;16.70;;;2.50;;
62338;SDS011;48368;53.406;6.214;2023-04-12T12:18:06;15.05;;;2.35;;
62338;SDS011;48368;53.406;6.214;2023-04-12T12:20:49;17.85;;;2.35;;
62338;SDS011;48368;53.406;6.214;2023-04-12T12:23:31;14.63;;;2.33;;
62338;SDS011;48368;53.406;6.214;2023-04-12T12:25:57;17.67;;;2.28;;
62338;SDS011;48368;53.406;6.214;2023-04-12T12:28:24;12.93;;;1.83;;
62338;SDS011;48368;53.406;6.214;2023-04-12T12:30:56;11.77;;;2.33;;
62338;SDS011;48368;53.406;6.214;2023-04-12T12:33:34;12.25;;;2.03;;
62338;SDS011;48368;53.406;6.214;2023-04-12T12:36:07;11.25;;;2.08;;
62338;SDS011;48368;53.406;6.214;2023-04-12T12:38:36;10.20;;;1.98;;
62338;SDS011;48368;53.406;6.214;2023-04-12T12:41:13;15.73;;;2.10;;
62338;SDS011;48368;53.406;6.214;2023-04-12T12:43:44;14.60;;;2.58;;
62338;SDS011;48368;53.406;6.214;2023-04-12T12:46:18;13.27;;;2.13;;
62338;SDS011;48368;53.406;6.214;2023-04-12T12:48:45;12.23;;;1.92;;
62338;SDS011;48368;53.406;6.214;2023-04-12T12:51:13;13.65;;;2.33;;
62338;SDS011;48368;53.406;6.214;2023-04-12T12:53:42;12.05;;;2.25;;
62338;SDS011;48368;53.406;6.214;2023-04-12T12:56:11;11.48;;;2.70;;
62338;SDS011;48368;53.406;6.214;2023-04-12T12:58:37;13.23;;;2.83;;
62338;SDS011;48368;53.406;6.214;2023-04-12T13:01:04;10.90;;;1.83;;
62338;SDS011;48368;53.406;6.214;2023-04-12T13:03:30;12.38;;;1.77;;
62338;SDS011;48368;53.406;6.214;2023-04-12T13:05:56;9.13;;;1.92;;
62338;SDS011;48368;53.406;6.214;2023-04-12T13:08:22;11.70;;;1.70;;
62338;SDS011;48368;53.406;6.214;2023-04-12T13:10:48;13.52;;;1.77;;
62338;SDS011;48368;53.406;6.214;2023-04-12T13:13:14;11.15;;;1.65;;
62338;SDS011;48368;53.406;6.214;2023-04-12T13:15:40;11.13;;;1.90;;
62338;SDS011;48368;53.406;6.214;2023-04-12T13:18:05;18.83;;;3.58;;
62338;SDS011;48368;53.406;6.214;2023-04-12T13:20:31;12.00;;;2.03;;
62338;SDS011;48368;53.406;6.214;2023-04-12T13:22:57;12.68;;;2.35;;
62338;SDS011;48368;53.406;6.214;2023-04-12T13:25:23;12.32;;;1.67;;
62338;SDS011;48368;53.406;6.214;2023-04-12T13:27:49;9.80;;;2.28;;
62338;SDS011;48368;53.406;6.214;2023-04-12T13:30:19;11.95;;;1.88;;
62338;SDS011;48368;53.406;6.214;2023-04-12T13:32:45;9.60;;;1.98;;
62338;SDS011;48368;53.406;6.214;2023-04-12T13:35:10;10.00;;;1.92;;
62338;SDS011;48368;53.406;6.214;2023-04-12T13:37:37;12.43;;;1.48;;
62338;SDS011;48368;53.406;6.214;2023-04-12T13:40:03;10.93;;;2.10;;
62338;SDS011;48368;53.406;6.214;2023-04-12T13:42:29;11.68;;;2.15;;
62338;SDS011;48368;53.406;6.214;2023-04-12T13:44:54;11.23;;;1.70;;
62338;SDS011;48368;53.406;6.214;2023-04-12T13:47:21;13.00;;;1.77;;
62338;SDS011;48368;53.406;6.214;2023-04-12T13:49:47;11.75;;;2.08;;
62338;SDS011;48368;53.406;6.214;2023-04-12T13:52:16;16.13;;;2.20;;
62338;SDS011;48368;53.406;6.214;2023-04-12T13:54:42;14.23;;;2.25;;
62338;SDS011;48368;53.406;6.214;2023-04-12T13:57:08;13.27;;;1.90;;
62338;SDS011;48368;53.406;6.214;2023-04-12T13:59:34;12.15;;;2.17;;
62338;SDS011;48368;53.406;6.214;2023-04-12T14:02:00;10.77;;;2.63;;
62338;SDS011;48368;53.406;6.214;2023-04-12T14:04:26;12.55;;;2.15;;
62338;SDS011;48368;53.406;6.214;2023-04-12T14:06:53;10.88;;;2.20;;
62338;SDS011;48368;53.406;6.214;2023-04-12T14:09:26;17.70;;;1.88;;
62338;SDS011;48368;53.406;6.214;2023-04-12T14:11:53;12.80;;;2.40;;
62338;SDS011;48368;53.406;6.214;2023-04-12T14:14:20;12.32;;;1.63;;
62338;SDS011;48368;53.406;6.214;2023-04-12T14:16:50;9.98;;;1.90;;
62338;SDS011;48368;53.406;6.214;2023-04-12T14:19:17;11.55;;;1.88;;
62338;SDS011;48368;53.406;6.214;2023-04-12T14:21:43;8.68;;;1.52;;
62338;SDS011;48368;53.406;6.214;2023-04-12T14:24:10;8.98;;;1.27;;
62338;SDS011;48368;53.406;6.214;2023-04-12T14:26:37;6.20;;;1.45;;
62338;SDS011;48368;53.406;6.214;2023-04-12T14:29:04;6.97;;;1.92;;
62338;SDS011;48368;53.406;6.214;2023-04-12T14:31:33;8.13;;;1.80;;
62338;SDS011;48368;53.406;6.214;2023-04-12T14:34:02;6.95;;;1.35;;
62338;SDS011;48368;53.406;6.214;2023-04-12T14:36:29;8.82;;;1.63;;
62338;SDS011;48368;53.406;6.214;2023-04-12T14:38:55;12.93;;;1.73;;
62338;SDS011;48368;53.406;6.214;2023-04-12T14:41:21;7.05;;;1.50;;
62338;SDS011;48368;53.406;6.214;2023-04-12T14:43:47;9.10;;;1.60;;
62338;SDS011;48368;53.406;6.214;2023-04-12T14:46:14;8.20;;;1.42;;
62338;SDS011;48368;53.406;6.214;2023-04-12T14:48:41;6.90;;;1.40;;
62338;SDS011;48368;53.406;6.214;2023-04-12T14:51:07;9.18;;;1.67;;
62338;SDS011;48368;53.406;6.214;2023-04-12T14:53:32;11.20;;;1.73;;
62338;SDS011;48368;53.406;6.214;2023-04-12T14:55:58;9.70;;;1.73;;
62338;SDS011;48368;53.406;6.214;2023-04-12T14:58:29;9.75;;;2.03;;
62338;SDS011;48368;53.406;6.214;2023-04-12T15:00:58;12.38;;;2.15;;